Time;durP1;ratioP1;P1;durP2;ratioP2;P2;SDS_P1;SDS_P2;PMS_P1;PMS_P2;Temp;Humidity;BMP_temperature;BMP_pressure;BME280_temperature;BME280_humidity;BME280_pressure;Samples;Min_cycle;Max_cycle;Signal;HPM_P1;HPM_P2
2023/10/22 00:00:29;;;;;;;7.20;3.00;;;;;;;6.23;100.00;98915.34;5025925;28;20048;-43
2023/10/22 00:02:56;;;;;;;6.28;3.08;;;;;;;6.23;100.00;98918.09;5025929;28;20055;-43
2023/10/22 00:05:24;;;;;;;7.40;5.07;;;;;;;6.21;100.00;98922.34;5003350;28;20053;-43
2023/10/22 00:07:50;;;;;;;9.32;3.72;;;;;;;6.18;100.00;98926.63;5026183;28;20030;-43
2023/10/22 00:10:17;;;;;;;8.73;4.97;;;;;;;6.15;100.00;98932.84;5022555;28;20492;-43
2023/10/22 00:12:44;;;;;;;8.15;3.67;;;;;;;6.13;100.00;98933.22;5009956;28;20825;-43
2023/10/22 00:15:11;;;;;;;7.60;2.92;;;;;;;6.14;100.00;98928.50;5012548;28;20049;-42
2023/10/22 00:17:39;;;;;;;7.05;3.40;;;;;;;6.15;100.00;98938.31;5009975;28;20447;-43
2023/10/22 00:20:07;;;;;;;4.40;2.92;;;;;;;6.14;100.00;98939.50;5009329;28;20044;-43
2023/10/22 00:22:33;;;;;;;5.63;2.90;;;;;;;6.15;100.00;98946.56;5018451;28;20119;-44
2023/10/22 00:25:00;;;;;;;6.38;3.08;;;;;;;6.13;100.00;98944.19;5025885;28;20038;-43
2023/10/22 00:27:27;;;;;;;6.70;3.13;;;;;;;6.13;100.00;98943.41;5002246;28;20574;-43
2023/10/22 00:29:54;;;;;;;5.43;2.55;;;;;;;6.11;100.00;98949.25;5009483;28;20148;-43
2023/10/22 00:32:21;;;;;;;5.88;2.38;;;;;;;6.10;100.00;98944.09;5019236;28;20049;-44
2023/10/22 00:34:47;;;;;;;7.55;2.75;;;;;;;6.09;100.00;98942.50;5012752;28;20049;-42
2023/10/22 00:37:14;;;;;;;5.72;2.88;;;;;;;6.06;100.00;98937.75;5009331;28;20103;-44
2023/10/22 00:39:41;;;;;;;5.47;3.03;;;;;;;6.06;100.00;98943.25;5012359;28;20121;-44
2023/10/22 00:42:09;;;;;;;6.07;3.65;;;;;;;6.08;100.00;98943.69;5028357;28;20075;-42
2023/10/22 00:44:36;;;;;;;8.88;2.40;;;;;;;6.05;100.00;98952.63;5025215;28;20052;-43
2023/10/22 00:47:05;;;;;;;10.32;3.08;;;;;;;6.02;100.00;98953.34;5009552;28;20655;-42
2023/10/22 00:49:34;;;;;;;5.25;3.20;;;;;;;6.02;100.00;98950.59;5008319;28;20069;-43
2023/10/22 00:52:01;;;;;;;8.82;2.67;;;;;;;5.99;100.00;98959.56;5008843;28;20038;-44
2023/10/22 00:54:28;;;;;;;7.75;2.78;;;;;;;5.97;100.00;98951.69;5008566;28;20752;-43
2023/10/22 00:56:55;;;;;;;4.30;2.58;;;;;;;5.97;100.00;98961.88;5020122;28;20053;-43
2023/10/22 00:59:23;;;;;;;5.38;2.88;;;;;;;5.95;100.00;98958.69;5008968;28;20113;-43
2023/10/22 01:01:50;;;;;;;7.07;2.28;;;;;;;5.93;100.00;98964.53;5018447;28;20079;-43
2023/10/22 01:04:17;;;;;;;4.97;2.33;;;;;;;5.93;100.00;98959.03;5028085;28;20116;-43
2023/10/22 01:06:45;;;;;;;4.40;2.80;;;;;;;5.93;100.00;98961.00;5024890;28;20091;-42
2023/10/22 01:09:12;;;;;;;6.18;2.35;;;;;;;5.94;100.00;98973.56;5027815;28;20033;-43
2023/10/22 01:11:58;;;;;;;7.63;2.88;;;;;;;5.94;100.00;98959.84;5028319;28;20049;-42
2023/10/22 01:14:25;;;;;;;4.05;2.72;;;;;;;5.96;100.00;98965.75;5026430;28;20144;-44
2023/10/22 01:16:55;;;;;;;6.28;2.90;;;;;;;5.93;100.00;98966.50;5028002;28;20636;-43
2023/10/22 01:19:22;;;;;;;9.68;2.58;;;;;;;5.92;100.00;98964.91;5027510;28;20048;-42
2023/10/22 01:21:50;;;;;;;5.05;2.47;;;;;;;5.91;100.00;98964.09;5025484;28;20569;-43
2023/10/22 01:24:17;;;;;;;4.32;2.72;;;;;;;5.91;100.00;98966.03;5027962;28;20502;-46
2023/10/22 01:26:46;;;;;;;7.82;2.25;;;;;;;5.90;100.00;98973.50;5028009;28;20043;-43
2023/10/22 01:29:14;;;;;;;7.57;3.00;;;;;;;5.87;100.00;98978.91;5027756;28;20084;-44
2023/10/22 01:31:41;;;;;;;7.45;2.40;;;;;;;5.86;100.00;98982.78;5028471;28;20498;-44
2023/10/22 01:34:08;;;;;;;12.75;3.63;;;;;;;5.87;100.00;98984.41;5027914;28;20046;-43
2023/10/22 01:36:35;;;;;;;6.30;2.67;;;;;;;5.86;100.00;98988.28;5009862;28;20104;-45
2023/10/22 01:39:02;;;;;;;4.05;2.40;;;;;;;5.84;100.00;98985.88;5028591;28;21363;-41
2023/10/22 01:41:29;;;;;;;5.45;3.03;;;;;;;5.85;100.00;98982.00;5010356;28;20797;-44
2023/10/22 01:43:56;;;;;;;6.75;2.63;;;;;;;5.84;100.00;98996.06;5028354;28;20164;-43
2023/10/22 01:46:23;;;;;;;4.32;2.20;;;;;;;5.83;100.00;98986.22;5027261;28;20816;-42
2023/10/22 01:48:50;;;;;;;8.07;2.00;;;;;;;5.82;100.00;98998.38;5027592;28;20041;-43
2023/10/22 01:51:16;;;;;;;5.85;2.30;;;;;;;5.78;100.00;98990.03;5020930;28;20033;-43
2023/10/22 01:53:43;;;;;;;6.75;2.08;;;;;;;5.77;100.00;98996.66;5027755;28;20685;-44
2023/10/22 01:56:10;;;;;;;4.78;2.38;;;;;;;5.77;100.00;98991.19;5009610;28;20036;-45
2023/10/22 01:58:37;;;;;;;7.07;2.10;;;;;;;5.77;100.00;98996.66;5026825;28;20045;-49
2023/10/22 02:01:04;;;;;;;4.90;1.98;;;;;;;5.76;100.00;98989.59;5026754;28;20069;-43
2023/10/22 02:03:35;;;;;;;8.00;3.33;;;;;;;5.75;100.00;98998.19;5026976;28;20120;-42
2023/10/22 02:06:10;;;;;;;5.00;2.45;;;;;;;5.74;100.00;99002.09;5021607;28;20050;-44
2023/10/22 02:08:38;;;;;;;6.50;2.10;;;;;;;5.74;100.00;99008.38;5009284;28;20037;-46
2023/10/22 02:11:05;;;;;;;5.13;2.00;;;;;;;5.75;100.00;99014.66;5008948;28;20550;-48
2023/10/22 02:13:32;;;;;;;3.50;1.88;;;;;;;5.72;100.00;99010.66;5025862;28;20122;-44
2023/10/22 02:16:00;;;;;;;4.57;1.90;;;;;;;5.72;100.00;99013.41;5027021;28;20069;-47
2023/10/22 02:18:27;;;;;;;6.88;2.03;;;;;;;5.71;100.00;99016.53;5026786;28;20061;-42
2023/10/22 02:20:58;;;;;;;8.98;2.08;;;;;;;5.69;100.00;99011.41;5025839;28;20386;-43
2023/10/22 02:23:25;;;;;;;6.32;1.92;;;;;;;5.68;100.00;99025.47;5025993;28;20466;-45
2023/10/22 02:25:52;;;;;;;3.15;1.70;;;;;;;5.67;100.00;99026.59;5026953;28;20041;-43
2023/10/22 02:28:19;;;;;;;5.97;2.60;;;;;;;5.67;100.00;99032.09;5025959;28;20462;-43
2023/10/22 02:30:49;;;;;;;4.13;1.88;;;;;;;5.67;100.00;99040.34;5026275;28;20037;-43
2023/10/22 02:33:17;;;;;;;3.20;1.90;;;;;;;5.65;100.00;99037.16;5026372;28;20045;-44
2023/10/22 02:35:45;;;;;;;3.85;2.13;;;;;;;5.65;100.00;99042.66;5027320;28;20721;-43
2023/10/22 02:38:17;;;;;;;4.07;2.00;;;;;;;5.63;100.00;99039.47;5012466;28;20146;-47
2023/10/22 02:40:50;;;;;;;7.05;2.25;;;;;;;5.63;100.00;99044.94;5026602;28;20554;-45
2023/10/22 02:43:16;;;;;;;6.60;2.00;;;;;;;5.62;100.00;99046.09;5026619;28;20095;-43
2023/10/22 02:45:53;;;;;;;5.63;1.73;;;;;;;5.61;100.00;99047.25;5025389;28;20044;-43
2023/10/22 02:48:21;;;;;;;4.68;1.90;;;;;;;5.58;100.00;99048.75;5019628;28;20140;-44
2023/10/22 02:50:49;;;;;;;8.68;3.05;;;;;;;5.57;100.00;99057.34;5021950;28;20041;-44
2023/10/22 02:53:16;;;;;;;5.88;1.95;;;;;;;5.55;100.00;99060.44;5008617;28;20091;-43
2023/10/22 02:55:43;;;;;;;6.38;2.00;;;;;;;5.53;100.00;99062.75;5026257;28;20061;-45
2023/10/22 02:58:09;;;;;;;2.85;1.60;;;;;;;5.52;100.00;99067.44;5026515;28;20454;-44
2023/10/22 03:00:37;;;;;;;3.90;2.30;;;;;;;5.52;100.00;99069.38;5105283;22;20438;-45
2023/10/22 03:03:04;;;;;;;4.57;2.03;;;;;;;5.51;100.00;99071.31;4995062;28;20039;-45
2023/10/22 03:05:33;;;;;;;3.95;2.05;;;;;;;5.53;100.00;99076.47;4986645;28;20655;-46
2023/10/22 03:08:01;;;;;;;3.65;2.28;;;;;;;5.51;100.00;99076.00;4986652;28;20046;-48
2023/10/22 03:10:27;;;;;;;6.88;2.58;;;;;;;5.49;100.00;99076.38;4986192;28;20056;-47
2023/10/22 03:12:54;;;;;;;4.97;1.80;;;;;;;5.49;100.00;99073.63;4986607;28;20397;-47
2023/10/22 03:15:21;;;;;;;3.05;1.70;;;;;;;5.48;100.00;99093.97;4986470;28;20043;-45
2023/10/22 03:17:48;;;;;;;4.40;1.90;;;;;;;5.46;100.00;99090.81;4987060;28;20093;-45
2023/10/22 03:20:18;;;;;;;9.73;1.65;;;;;;;5.45;100.00;99094.69;4980252;28;20043;-48
2023/10/22 03:22:45;;;;;;;9.25;2.80;;;;;;;5.46;100.00;99100.97;4986872;28;20133;-48
2023/10/22 03:25:12;;;;;;;4.90;2.80;;;;;;;5.45;100.00;99091.94;4986561;28;20042;-45
2023/10/22 03:27:39;;;;;;;6.78;1.98;;;;;;;5.45;100.00;99102.91;4997857;28;20038;-46
2023/10/22 03:30:07;;;;;;;7.82;2.20;;;;;;;5.45;100.00;99107.63;4988407;28;20117;-48
2023/10/22 03:32:38;;;;;;;3.10;1.90;;;;;;;5.45;100.00;99110.38;4986226;28;20061;-46
2023/10/22 03:35:06;;;;;;;3.33;1.88;;;;;;;5.46;100.00;99111.94;4986903;28;20093;-50
2023/10/22 03:37:33;;;;;;;3.60;1.80;;;;;;;5.44;100.00;99111.50;4985928;28;20051;-47
2023/10/22 03:39:59;;;;;;;5.35;1.70;;;;;;;5.43;100.00;99113.44;4986357;28;20547;-46
2023/10/22 03:42:26;;;;;;;3.75;1.55;;;;;;;5.42;100.00;99122.06;4986469;28;20113;-46
2023/10/22 03:44:53;;;;;;;3.85;1.90;;;;;;;5.41;100.00;99121.25;4988210;28;20046;-46
2023/10/22 03:47:19;;;;;;;4.80;1.95;;;;;;;5.40;100.00;99124.34;4990229;28;20655;-48
2023/10/22 03:49:46;;;;;;;6.85;2.10;;;;;;;5.40;100.00;99118.88;4990245;28;20062;-45
2023/10/22 03:52:13;;;;;;;4.72;1.73;;;;;;;5.40;100.00;99119.63;4989444;28;20069;-45
2023/10/22 03:54:40;;;;;;;8.38;1.40;;;;;;;5.40;100.00;99129.84;4977581;28;20046;-48
2023/10/22 03:57:07;;;;;;;8.35;2.13;;;;;;;5.40;100.00;99130.63;4990375;28;20042;-48
2023/10/22 03:59:33;;;;;;;4.43;1.50;;;;;;;5.38;100.00;99140.34;4990292;28;20053;-49
2023/10/22 04:02:00;;;;;;;6.25;2.28;;;;;;;5.37;100.00;99136.81;5000802;28;20454;-48
2023/10/22 04:04:27;;;;;;;6.97;2.20;;;;;;;5.38;100.00;99138.41;5009370;28;20108;-49
2023/10/22 04:06:54;;;;;;;7.72;1.92;;;;;;;5.37;100.00;99142.31;5010024;28;20044;-49
2023/10/22 04:09:21;;;;;;;5.63;1.50;;;;;;;5.36;100.00;99150.88;5009824;28;20483;-48
2023/10/22 04:11:47;;;;;;;5.53;1.70;;;;;;;5.35;100.00;99149.28;5008760;28;20649;-45
2023/10/22 04:14:14;;;;;;;5.35;1.58;;;;;;;5.33;100.00;99152.38;5009496;28;20731;-53
2023/10/22 04:16:41;;;;;;;6.22;1.90;;;;;;;5.30;100.00;99164.03;5009266;28;20070;-47
2023/10/22 04:19:08;;;;;;;6.63;2.60;;;;;;;5.30;100.00;99157.75;5005404;28;20511;-45
2023/10/22 04:21:35;;;;;;;7.18;1.98;;;;;;;5.29;100.00;99161.66;5004699;28;20503;-51
2023/10/22 04:24:02;;;;;;;5.85;1.83;;;;;;;5.26;100.00;99168.66;5008851;28;20045;-47
2023/10/22 04:26:29;;;;;;;7.70;1.85;;;;;;;5.23;100.00;99168.53;5008990;28;20514;-48
2023/10/22 04:28:55;;;;;;;3.90;1.80;;;;;;;5.21;100.00;99165.34;5009006;28;20054;-45
2023/10/22 04:31:22;;;;;;;3.33;1.63;;;;;;;5.19;100.00;99173.91;5009110;28;20038;-45
2023/10/22 04:33:49;;;;;;;5.63;1.63;;;;;;;5.18;100.00;99169.59;5009378;28;20427;-45
2023/10/22 04:36:17;;;;;;;6.18;1.73;;;;;;;5.16;100.00;99180.13;5009007;28;20041;-45
2023/10/22 04:38:48;;;;;;;5.38;1.95;;;;;;;5.18;100.00;99169.59;5009398;28;20045;-45
2023/10/22 04:41:14;;;;;;;7.07;1.80;;;;;;;5.17;100.00;99173.47;5008915;28;20817;-45
2023/10/22 04:43:41;;;;;;;4.90;1.70;;;;;;;5.14;100.00;99173.34;5009486;28;20034;-45
2023/10/22 04:46:08;;;;;;;5.00;1.70;;;;;;;5.13;100.00;99189.03;5008143;28;20543;-46
2023/10/22 04:48:35;;;;;;;6.75;2.10;;;;;;;5.12;100.00;99181.13;5008426;28;20037;-45
2023/10/22 04:51:06;;;;;;;4.82;2.25;;;;;;;5.07;100.00;99176.69;5007054;28;20046;-45
2023/10/22 04:53:36;;;;;;;6.65;2.08;;;;;;;5.06;100.00;99180.56;4990706;28;20601;-45
2023/10/22 04:56:04;;;;;;;6.22;2.10;;;;;;;5.05;100.00;99184.47;5008219;28;20116;-46
2023/10/22 04:58:33;;;;;;;7.90;3.15;;;;;;;5.06;100.00;99183.31;5008840;28;20052;-45
2023/10/22 05:01:00;;;;;;;3.55;2.00;;;;;;;5.05;100.00;99195.47;5005141;28;20050;-48
2023/10/22 05:03:26;;;;;;;4.82;1.90;;;;;;;5.03;100.00;99202.44;4989274;28;20039;-45
2023/10/22 05:05:55;;;;;;;8.00;2.13;;;;;;;5.03;100.00;99197.72;4989250;28;20038;-45
2023/10/22 05:08:26;;;;;;;5.70;1.73;;;;;;;4.98;100.00;99199.94;4988879;28;20187;-45
2023/10/22 05:10:53;;;;;;;6.03;1.83;;;;;;;4.95;100.00;99195.91;4988467;28;20046;-45
2023/10/22 05:13:22;;;;;;;3.80;1.98;;;;;;;4.93;100.00;99207.22;4988981;28;20041;-45
2023/10/22 05:15:50;;;;;;;5.88;2.88;;;;;;;4.91;100.00;99206.78;4988927;28;20097;-47
2023/10/22 05:18:17;;;;;;;6.25;2.75;;;;;;;4.90;100.00;99210.66;4988316;28;20050;-46
2023/10/22 05:20:44;;;;;;;8.13;2.55;;;;;;;4.88;100.00;99209.41;4988142;28;20042;-45
2023/10/22 05:23:11;;;;;;;6.43;2.25;;;;;;;4.85;100.00;99204.63;4988869;28;20762;-46
2023/10/22 05:25:37;;;;;;;10.27;2.78;;;;;;;4.82;100.00;99211.59;4986790;28;20038;-45
2023/10/22 05:28:04;;;;;;;5.68;1.73;;;;;;;4.79;100.00;99211.50;4988351;28;20042;-45
2023/10/22 05:30:31;;;;;;;4.13;1.92;;;;;;;4.76;100.00;99209.44;4988178;28;20400;-49
2023/10/22 05:32:59;;;;;;;7.25;1.80;;;;;;;4.74;100.00;99217.19;4988913;28;20088;-49
2023/10/22 05:35:26;;;;;;;5.28;1.98;;;;;;;4.75;100.00;99224.28;4988220;28;20140;-45
2023/10/22 05:37:53;;;;;;;3.72;1.50;;;;;;;4.73;100.00;99221.88;4987915;28;20396;-45
2023/10/22 05:40:20;;;;;;;3.95;2.03;;;;;;;4.73;100.00;99229.31;4988003;28;20042;-46
2023/10/22 05:42:46;;;;;;;5.47;2.00;;;;;;;4.73;100.00;99218.34;4988942;28;20042;-47
2023/10/22 05:45:13;;;;;;;9.27;2.90;;;;;;;4.72;100.00;99220.28;4987975;28;20580;-44
2023/10/22 05:47:40;;;;;;;39.28;5.03;;;;;;;4.74;100.00;99222.66;4988194;28;20046;-46
2023/10/22 05:50:07;;;;;;;6.88;3.63;;;;;;;4.72;100.00;99225.75;4986877;28;20124;-45
2023/10/22 05:52:34;;;;;;;7.25;2.38;;;;;;;4.72;100.00;99233.19;4986963;28;20835;-46
2023/10/22 05:55:01;;;;;;;6.18;3.08;;;;;;;4.71;100.00;99242.56;4988038;28;20050;-45
2023/10/22 05:57:28;;;;;;;6.22;3.20;;;;;;;4.70;100.00;99236.28;4970673;28;20042;-45
2023/10/22 05:59:57;;;;;;;5.82;3.38;;;;;;;4.71;100.00;99248.03;4987956;28;20038;-45
2023/10/22 06:02:24;;;;;;;3.70;2.65;;;;;;;4.67;100.00;99258.09;4988236;28;20074;-45
2023/10/22 06:04:51;;;;;;;9.63;3.30;;;;;;;4.67;100.00;99252.59;4987373;28;20088;-45
2023/10/22 06:07:18;;;;;;;3.78;2.15;;;;;;;4.64;100.00;99256.81;4986953;28;20038;-47
2023/10/22 06:09:45;;;;;;;5.80;2.08;;;;;;;4.63;100.00;99266.19;4988024;28;20046;-45
2023/10/22 06:12:11;;;;;;;10.15;2.58;;;;;;;4.63;100.00;99262.66;4988045;28;20514;-45
2023/10/22 06:14:38;;;;;;;4.63;1.90;;;;;;;4.63;100.00;99265.41;4987834;28;20046;-46
2023/10/22 06:17:05;;;;;;;5.38;1.80;;;;;;;4.65;100.00;99269.41;4986113;28;20046;-45
2023/10/22 06:19:32;;;;;;;5.80;1.67;;;;;;;4.66;100.00;99270.22;4983529;28;20046;-45
2023/10/22 06:21:59;;;;;;;6.10;2.38;;;;;;;4.64;100.00;99270.53;4987191;28;20495;-46
2023/10/22 06:24:25;;;;;;;3.67;2.25;;;;;;;4.63;100.00;99270.88;4987610;28;20042;-46
2023/10/22 06:26:52;;;;;;;5.40;2.55;;;;;;;4.62;100.00;99274.75;4986975;28;20049;-48
2023/10/22 06:29:19;;;;;;;13.15;4.32;;;;;;;4.62;100.00;99280.25;4987264;28;20109;-46
2023/10/22 06:31:46;;;;;;;8.98;3.28;;;;;;;4.61;100.00;99278.63;4986858;28;20038;-45
2023/10/22 06:34:13;;;;;;;8.73;4.30;;;;;;;4.61;100.00;99284.09;4987165;28;20052;-53
2023/10/22 06:36:40;;;;;;;6.38;2.97;;;;;;;4.60;100.00;99279.78;4986931;28;20038;-47
2023/10/22 06:39:10;;;;;;;10.07;3.00;;;;;;;4.60;100.00;99293.50;4986554;28;20052;-45
2023/10/22 06:41:37;;;;;;;6.45;2.63;;;;;;;4.58;100.00;99290.31;4987094;28;20038;-45
2023/10/22 06:44:04;;;;;;;5.20;2.45;;;;;;;4.57;100.00;99289.50;4986305;28;20042;-47
2023/10/22 06:46:30;;;;;;;7.32;2.22;;;;;;;4.56;100.00;99306.25;4986545;28;20451;-48
2023/10/22 06:48:57;;;;;;;6.95;2.33;;;;;;;4.53;100.00;99305.00;4986205;28;20038;-45
2023/10/22 06:51:24;;;;;;;3.75;1.90;;;;;;;4.52;100.00;99308.09;4978663;28;20045;-45
2023/10/22 06:53:50;;;;;;;5.72;2.22;;;;;;;4.49;100.00;99309.56;4987117;28;20075;-46
2023/10/22 06:56:17;;;;;;;7.57;1.77;;;;;;;4.51;100.00;99317.44;4985383;28;20534;-45
2023/10/22 06:58:47;;;;;;;5.22;1.92;;;;;;;4.51;100.00;99311.97;4986845;28;20093;-47
2023/10/22 07:01:14;;;;;;;6.90;2.67;;;;;;;4.51;100.00;99318.25;4976904;28;20480;-49
2023/10/22 07:03:44;;;;;;;7.88;1.90;;;;;;;4.52;100.00;99324.53;4986536;28;20049;-46
2023/10/22 07:06:12;;;;;;;5.07;1.88;;;;;;;4.52;100.00;99319.06;4986168;28;20050;-47
2023/10/22 07:08:39;;;;;;;8.65;2.15;;;;;;;4.54;100.00;99325.78;4986599;28;20038;-49
2023/10/22 07:11:06;;;;;;;8.48;3.08;;;;;;;4.54;100.00;99328.53;4986549;28;20066;-47
2023/10/22 07:13:32;;;;;;;4.90;1.42;;;;;;;4.55;100.00;99329.34;4986779;28;20042;-47
2023/10/22 07:15:59;;;;;;;7.30;2.20;;;;;;;4.57;100.00;99335.28;4986255;28;20035;-45
2023/10/22 07:18:26;;;;;;;5.35;2.10;;;;;;;4.58;100.00;99345.13;4984940;28;20046;-48
2023/10/22 07:20:53;;;;;;;4.68;2.22;;;;;;;4.58;100.00;99345.88;4990334;28;20496;-48
2023/10/22 07:23:19;;;;;;;5.78;2.20;;;;;;;4.58;100.00;99348.63;4990146;28;20125;-51
2023/10/22 07:25:46;;;;;;;8.20;3.30;;;;;;;4.60;100.00;99365.56;4991268;28;20144;-51
2023/10/22 07:28:15;;;;;;;6.90;2.90;;;;;;;4.60;100.00;99360.06;4990963;28;20038;-49
2023/10/22 07:30:49;;;;;;;4.40;2.03;;;;;;;4.60;100.00;99362.81;4990466;28;20042;-46
2023/10/22 07:33:17;;;;;;;4.22;2.42;;;;;;;4.62;100.00;99370.69;4990699;28;20038;-51
2023/10/22 07:36:00;;;;;;;9.90;2.47;;;;;;;4.63;100.00;99375.03;4990064;28;20039;-46
2023/10/22 07:38:32;;;;;;;7.38;2.67;;;;;;;4.63;100.00;99370.34;4990238;28;20491;-45
2023/10/22 07:41:00;;;;;;;5.78;1.92;;;;;;;4.66;100.00;99380.63;4990117;28;20090;-47
2023/10/22 07:43:29;;;;;;;8.05;2.78;;;;;;;4.68;100.00;99385.78;4990567;28;20560;-46
2023/10/22 07:46:00;;;;;;;10.55;2.50;;;;;;;4.72;100.00;99386.69;4989731;28;20035;-46
2023/10/22 07:48:27;;;;;;;7.55;3.22;;;;;;;4.74;100.00;99381.66;4988629;28;20046;-48
2023/10/22 07:50:54;;;;;;;5.13;1.90;;;;;;;4.78;100.00;99396.31;4990631;28;20049;-46
2023/10/22 07:53:21;;;;;;;6.25;1.83;;;;;;;4.81;100.00;99399.19;4990414;28;20714;-48
2023/10/22 07:55:48;;;;;;;3.67;2.13;;;;;;;4.86;100.00;99406.38;4972549;28;20088;-47
2023/10/22 07:58:14;;;;;;;6.28;2.22;;;;;;;4.90;100.00;99404.56;4989710;28;20414;-51
2023/10/22 08:00:41;;;;;;;5.18;1.88;;;;;;;4.94;100.00;99408.22;4989863;28;20177;-47
2023/10/22 08:03:08;;;;;;;5.78;1.80;;;;;;;4.99;100.00;99405.25;4990362;28;20062;-47
2023/10/22 08:05:35;;;;;;;5.75;2.35;;;;;;;5.04;100.00;99413.28;4973194;28;20047;-47
2023/10/22 08:08:02;;;;;;;4.93;2.40;;;;;;;5.09;100.00;99421.28;4990560;28;20042;-46
2023/10/22 08:10:30;;;;;;;8.82;2.45;;;;;;;5.15;100.00;99421.84;4981622;28;20035;-47
2023/10/22 08:13:00;;;;;;;4.30;1.65;;;;;;;5.20;100.00;99427.13;4990035;28;20180;-47
2023/10/22 08:19:11;;;;;;;5.45;1.63;;;;;;;5.34;100.00;99422.09;4983164;28;20058;-47
2023/10/22 08:21:42;;;;;;;5.18;2.33;;;;;;;5.40;100.00;99432.50;4984615;28;20060;-48
2023/10/22 08:24:16;;;;;;;6.40;2.22;;;;;;;5.46;100.00;99441.31;4988801;28;20137;-44
2023/10/22 08:26:47;;;;;;;4.70;1.48;;;;;;;5.50;100.00;99437.56;4990846;28;20050;-46
2023/10/22 08:29:58;;;;;;;5.57;1.90;;;;;;;5.56;100.00;99440.06;4973393;28;20536;-45
2023/10/22 08:32:27;;;;;;;6.20;1.67;;;;;;;5.61;100.00;99448.88;4973618;28;20097;-44
2023/10/22 08:34:54;;;;;;;5.28;1.50;;;;;;;5.66;100.00;99456.06;4989388;28;20030;-46
2023/10/22 08:37:20;;;;;;;5.63;1.52;;;;;;;5.72;100.00;99443.72;4990447;28;20097;-49
2023/10/22 08:39:47;;;;;;;4.53;1.10;;;;;;;5.77;100.00;99452.50;4989156;28;20144;-44
2023/10/22 08:42:20;;;;;;;4.40;1.48;;;;;;;5.83;100.00;99458.56;4987853;28;20431;-49
2023/10/22 08:44:48;;;;;;;3.15;1.45;;;;;;;5.88;100.00;99458.34;4988959;28;20055;-44
2023/10/22 08:47:16;;;;;;;3.42;1.10;;;;;;;5.92;100.00;99460.09;4988696;28;20084;-44
2023/10/22 08:49:43;;;;;;;2.60;1.15;;;;;;;5.99;100.00;99451.25;4988339;28;20483;-45
2023/10/22 08:52:10;;;;;;;4.00;1.15;;;;;;;6.04;100.00;99456.50;4989036;28;20035;-46
2023/10/22 08:54:40;;;;;;;4.57;1.35;;;;;;;6.11;100.00;99467.72;4989262;28;20045;-51
2023/10/22 08:57:08;;;;;;;;;;;;;;;6.14;100.00;99465.06;4971292;28;20050;-44
2023/10/22 08:59:37;;;;;;;4.82;1.38;;;;;;;6.19;100.00;99461.31;4988975;28;19932;-43
2023/10/22 09:02:11;;;;;;;5.32;1.98;;;;;;;6.26;100.00;99475.25;4980160;28;20459;-48
2023/10/22 09:04:38;;;;;;;8.07;1.20;;;;;;;6.32;100.00;99468.38;4977877;28;20085;-48
2023/10/22 09:07:06;;;;;;;5.65;2.35;;;;;;;6.39;100.00;99473.25;4987603;28;20057;-45
2023/10/22 09:09:37;;;;;;;3.72;1.50;;;;;;;6.48;100.00;99468.44;4986810;28;20377;-43
2023/10/22 09:12:08;;;;;;;6.35;1.63;;;;;;;6.55;100.00;99482.38;4984801;28;20592;-45
2023/10/22 09:14:35;;;;;;;4.82;1.63;;;;;;;6.60;100.00;99479.38;4989485;28;20046;-43
2023/10/22 09:17:19;;;;;;;3.58;1.02;;;;;;;6.66;100.00;99486.22;4989150;28;20492;-46
2023/10/22 09:19:47;;;;;;;4.78;0.88;;;;;;;6.73;100.00;99483.66;4988807;28;20842;-44
2023/10/22 09:22:27;;;;;;;6.90;1.90;;;;;;;6.78;100.00;99490.91;4987881;28;20042;-49
2023/10/22 09:24:56;;;;;;;5.72;1.50;;;;;;;6.84;100.00;99500.47;4969786;28;20042;-43
2023/10/22 09:27:28;;;;;;;6.72;1.40;;;;;;;6.90;100.00;99499.09;4988394;28;20530;-44
2023/10/22 09:29:58;;;;;;;8.68;1.38;;;;;;;6.95;100.00;99496.06;4988273;28;20034;-43
2023/10/22 09:32:26;;;;;;;9.57;2.45;;;;;;;7.01;100.00;99500.19;4988936;28;20050;-45
2023/10/22 09:35:12;;;;;;;5.45;1.45;;;;;;;7.08;100.00;99501.16;4988936;28;20403;-43
2023/10/22 09:37:54;;;;;;;5.03;1.48;;;;;;;7.12;100.00;99512.28;4988207;28;20046;-45
2023/10/22 09:40:22;;;;;;;13.50;1.58;;;;;;;7.15;100.00;99523.38;4980066;28;20077;-46
2023/10/22 09:42:50;;;;;;;7.38;1.60;;;;;;;7.20;100.00;99525.09;4987449;28;20046;-45
2023/10/22 09:45:22;;;;;;;3.92;1.10;;;;;;;7.24;100.00;99526.78;4979228;28;20416;-49
2023/10/22 09:47:54;;;;;;;3.65;1.25;;;;;;;7.29;100.00;99528.47;4989445;28;20101;-43
2023/10/22 09:50:51;;;;;;;4.57;1.08;;;;;;;7.34;100.00;99523.50;4988664;28;20046;-46
2023/10/22 09:53:26;;;;;;;3.97;1.17;;;;;;;7.40;100.00;99529.53;4987384;28;20054;-47
2023/10/22 09:55:56;;;;;;;4.43;1.35;;;;;;;7.43;100.00;99534.34;4988758;28;20030;-50
2023/10/22 09:58:31;;;;;;;5.43;1.13;;;;;;;7.46;100.00;99532.84;4988622;28;20101;-47
2023/10/22 10:00:59;;;;;;;2.33;1.00;;;;;;;7.50;100.00;99544.72;4988224;28;20137;-46
2023/10/22 10:03:27;;;;;;;5.47;0.93;;;;;;;7.53;100.00;99539.34;4987065;28;20081;-44
2023/10/22 10:05:54;;;;;;;2.30;1.02;;;;;;;7.56;100.00;99538.63;4985813;28;20149;-45
2023/10/22 10:08:22;;;;;;;4.80;1.13;;;;;;;7.60;100.00;99550.53;4987453;28;20041;-47
2023/10/22 10:10:51;;;;;;;3.65;0.77;;;;;;;7.67;100.00;99544.41;4987863;28;20141;-47
2023/10/22 10:13:18;;;;;;;3.72;2.03;;;;;;;7.74;100.00;99545.38;4969924;28;20048;-47
2023/10/22 10:15:58;;;;;;;2.33;1.17;;;;;;;7.83;100.00;99553.47;4986624;28;20054;-46
2023/10/22 10:19:02;;;;;;;5.93;2.15;;;;;;;7.91;100.00;99556.06;4982443;28;20042;-48
2023/10/22 10:21:45;;;;;;;3.13;1.20;;;;;;;7.96;100.00;99547.53;4987194;28;20143;-50
2023/10/22 10:24:28;;;;;;;7.15;2.05;;;;;;;8.04;100.00;99564.22;4979999;28;20105;-47
2023/10/22 10:26:56;;;;;;;4.80;1.20;;;;;;;8.09;100.00;99556.47;4987923;28;20103;-45
2023/10/22 10:29:28;;;;;;;5.28;1.27;;;;;;;8.17;100.00;99562.97;4986649;28;20054;-46
2023/10/22 10:32:15;;;;;;;4.80;1.10;;;;;;;8.24;100.00;99563.13;4987980;28;20038;-48
2023/10/22 10:34:45;;;;;;;5.65;1.30;;;;;;;8.29;100.00;99565.63;4987695;28;20054;-49
2023/10/22 10:37:21;;;;;;;3.97;1.20;;;;;;;8.33;100.00;99572.03;4979064;28;20131;-47
2023/10/22 10:39:54;;;;;;;1.85;0.70;;;;;;;8.36;100.00;99571.34;4987545;28;20046;-47
2023/10/22 10:42:30;;;;;;;7.45;2.22;;;;;;;8.38;100.00;99574.53;4987687;28;20042;-46
2023/10/22 10:45:02;;;;;;;2.90;0.70;;;;;;;8.39;100.00;99587.16;4966921;28;20045;-45
2023/10/22 10:47:31;;;;;;;1.30;0.77;;;;;;;8.41;100.00;99585.66;4982279;28;20052;-46
2023/10/22 10:50:10;;;;;;;3.42;1.77;;;;;;;8.42;100.00;99587.22;4987169;28;20447;-45
2023/10/22 10:52:37;;;;;;;4.05;1.25;;;;;;;8.45;100.00;99588.47;4987661;28;20077;-46
2023/10/22 10:55:19;;;;;;;5.53;1.30;;;;;;;8.46;100.00;99584.56;4987804;28;20074;-47
2023/10/22 10:57:52;;;;;;;10.95;2.03;;;;;;;8.48;100.00;99588.56;4987784;28;20755;-44
2023/10/22 11:00:32;;;;;;;6.65;1.20;;;;;;;8.50;100.00;99590.94;4986916;28;20165;-46
2023/10/22 11:03:04;;;;;;;4.63;1.10;;;;;;;8.53;100.00;99587.47;4976057;28;20061;-49
2023/10/22 11:05:37;;;;;;;3.17;0.88;;;;;;;8.54;100.00;99587.13;4986785;28;20035;-48
2023/10/22 11:08:25;;;;;;;3.67;0.88;;;;;;;8.59;100.00;99580.53;4986277;28;20424;-50
2023/10/22 11:10:56;;;;;;;3.90;1.13;;;;;;;8.63;100.00;99586.13;4974287;28;20050;-46
2023/10/22 11:13:26;;;;;;;1.25;0.60;;;;;;;8.68;100.00;99594.13;4982895;28;20085;-47
2023/10/22 11:16:03;;;;;;;2.95;0.88;;;;;;;8.70;100.00;99586.28;4987551;28;20042;-47
2023/10/22 11:18:30;;;;;;;8.55;2.72;;;;;;;8.74;100.00;99589.91;4986982;28;20050;-45
2023/10/22 11:20:57;;;;;;;2.65;1.45;;;;;;;8.77;100.00;99589.19;4985159;28;20046;-46
2023/10/22 11:23:24;;;;;;;3.30;0.77;;;;;;;8.80;100.00;99589.28;4986867;28;20149;-47
2023/10/22 11:25:51;;;;;;;1.77;0.60;;;;;;;8.79;100.00;99589.66;4985611;28;20042;-47
2023/10/22 11:28:18;;;;;;;3.00;0.80;;;;;;;8.81;100.00;99593.63;4986752;28;20171;-45
2023/10/22 11:30:45;;;;;;;2.05;0.77;;;;;;;8.85;100.00;99591.75;4984462;28;20062;-45
2023/10/22 11:33:28;;;;;;;4.35;1.73;;;;;;;8.92;100.00;99591.88;4987020;28;20089;-45
2023/10/22 11:35:56;;;;;;;2.85;1.15;;;;;;;8.99;100.00;99591.25;4987080;28;20054;-45
2023/10/22 11:38:23;;;;;;;11.82;1.88;;;;;;;9.01;100.00;99600.75;4983390;28;20832;-48
2023/10/22 11:40:55;;;;;;;2.53;1.17;;;;;;;9.06;100.00;99592.19;4985438;28;20070;-45
2023/10/22 11:43:24;;;;;;;4.50;1.70;;;;;;;9.11;100.00;99597.41;4973666;28;20516;-45
2023/10/22 11:45:55;;;;;;;5.53;1.20;;;;;;;9.17;100.00;99600.69;4978731;28;20042;-45